sensor_id;sensor_type;location;lat;lon;timestamp;temperature;humidity
39371;DHT22;25099;51.946;4.838;2022-11-23T00:01:34;8.00;99.90
39371;DHT22;25099;51.946;4.838;2022-11-23T00:04:03;7.80;99.90
39371;DHT22;25099;51.946;4.838;2022-11-23T00:06:29;7.80;99.90
39371;DHT22;25099;51.946;4.838;2022-11-23T00:08:55;7.60;99.90
39371;DHT22;25099;51.946;4.838;2022-11-23T00:11:22;7.50;99.90
39371;DHT22;25099;51.946;4.838;2022-11-23T00:13:48;7.50;99.90
39371;DHT22;25099;51.946;4.838;2022-11-23T00:16:19;7.50;99.90
39371;DHT22;25099;51.946;4.838;2022-11-23T00:18:46;7.40;99.90
39371;DHT22;25099;51.946;4.838;2022-11-23T00:21:14;7.40;99.90
39371;DHT22;25099;51.946;4.838;2022-11-23T00:23:40;7.40;99.90
39371;DHT22;25099;51.946;4.838;2022-11-23T00:26:06;7.50;99.90
39371;DHT22;25099;51.946;4.838;2022-11-23T00:28:32;7.50;99.90
39371;DHT22;25099;51.946;4.838;2022-11-23T00:31:01;7.60;99.90
39371;DHT22;25099;51.946;4.838;2022-11-23T00:33:27;7.60;99.90
39371;DHT22;25099;51.946;4.838;2022-11-23T00:36:04;7.70;99.90
39371;DHT22;25099;51.946;4.838;2022-11-23T00:38:30;7.70;99.90
39371;DHT22;25099;51.946;4.838;2022-11-23T00:41:07;7.80;99.90
39371;DHT22;25099;51.946;4.838;2022-11-23T00:43:33;7.80;99.90
39371;DHT22;25099;51.946;4.838;2022-11-23T00:48:44;7.90;99.90
39371;DHT22;25099;51.946;4.838;2022-11-23T00:51:12;7.90;99.90
39371;DHT22;25099;51.946;4.838;2022-11-23T00:53:38;8.00;99.90
39371;DHT22;25099;51.946;4.838;2022-11-23T00:56:04;8.00;99.90
39371;DHT22;25099;51.946;4.838;2022-11-23T00:58:30;8.00;99.90
39371;DHT22;25099;51.946;4.838;2022-11-23T01:01:11;8.10;99.90
39371;DHT22;25099;51.946;4.838;2022-11-23T01:03:39;8.10;99.90
39371;DHT22;25099;51.946;4.838;2022-11-23T01:06:12;8.10;99.90
39371;DHT22;25099;51.946;4.838;2022-11-23T01:08:38;8.10;99.90
39371;DHT22;25099;51.946;4.838;2022-11-23T01:11:07;8.20;99.90
39371;DHT22;25099;51.946;4.838;2022-11-23T01:13:32;8.20;99.90
39371;DHT22;25099;51.946;4.838;2022-11-23T01:15:58;8.10;99.90
39371;DHT22;25099;51.946;4.838;2022-11-23T01:18:24;8.20;99.90
39371;DHT22;25099;51.946;4.838;2022-11-23T01:20:50;8.20;99.90
39371;DHT22;25099;51.946;4.838;2022-11-23T01:23:15;8.20;99.90
39371;DHT22;25099;51.946;4.838;2022-11-23T01:25:41;8.10;99.90
39371;DHT22;25099;51.946;4.838;2022-11-23T01:28:07;8.10;99.90
39371;DHT22;25099;51.946;4.838;2022-11-23T01:30:33;8.10;99.90
39371;DHT22;25099;51.946;4.838;2022-11-23T01:33:01;8.00;99.90
39371;DHT22;25099;51.946;4.838;2022-11-23T01:35:27;7.90;99.90
39371;DHT22;25099;51.946;4.838;2022-11-23T01:37:52;7.90;99.90
39371;DHT22;25099;51.946;4.838;2022-11-23T01:40:18;7.90;99.90
39371;DHT22;25099;51.946;4.838;2022-11-23T01:42:55;7.80;99.90
39371;DHT22;25099;51.946;4.838;2022-11-23T01:45:34;7.70;99.90
39371;DHT22;25099;51.946;4.838;2022-11-23T01:48:01;7.70;99.90
39371;DHT22;25099;51.946;4.838;2022-11-23T01:50:27;7.50;99.90
39371;DHT22;25099;51.946;4.838;2022-11-23T01:52:53;7.50;99.90
39371;DHT22;25099;51.946;4.838;2022-11-23T01:55:19;7.50;99.90
39371;DHT22;25099;51.946;4.838;2022-11-23T01:57:45;7.60;99.90
39371;DHT22;25099;51.946;4.838;2022-11-23T02:00:11;7.50;99.90
39371;DHT22;25099;51.946;4.838;2022-11-23T02:02:41;7.50;99.90
39371;DHT22;25099;51.946;4.838;2022-11-23T02:05:10;7.50;99.90
39371;DHT22;25099;51.946;4.838;2022-11-23T02:07:37;7.50;99.90
39371;DHT22;25099;51.946;4.838;2022-11-23T02:10:02;7.60;99.90
39371;DHT22;25099;51.946;4.838;2022-11-23T02:12:28;7.60;99.90
39371;DHT22;25099;51.946;4.838;2022-11-23T02:14:54;7.60;99.90
39371;DHT22;25099;51.946;4.838;2022-11-23T02:17:19;7.60;99.90
39371;DHT22;25099;51.946;4.838;2022-11-23T02:20:07;7.60;99.90
39371;DHT22;25099;51.946;4.838;2022-11-23T02:25:53;7.50;99.90
39371;DHT22;25099;51.946;4.838;2022-11-23T02:28:23;7.50;99.90
39371;DHT22;25099;51.946;4.838;2022-11-23T02:30:52;7.40;99.90
39371;DHT22;25099;51.946;4.838;2022-11-23T02:33:18;7.40;99.90
39371;DHT22;25099;51.946;4.838;2022-11-23T02:35:49;7.40;99.90
39371;DHT22;25099;51.946;4.838;2022-11-23T02:38:15;7.40;99.90
39371;DHT22;25099;51.946;4.838;2022-11-23T02:40:42;7.40;99.90
39371;DHT22;25099;51.946;4.838;2022-11-23T02:43:07;7.40;99.90
39371;DHT22;25099;51.946;4.838;2022-11-23T02:45:49;7.40;99.90
39371;DHT22;25099;51.946;4.838;2022-11-23T02:48:16;7.50;99.90
39371;DHT22;25099;51.946;4.838;2022-11-23T02:50:42;7.50;99.90
39371;DHT22;25099;51.946;4.838;2022-11-23T02:53:08;7.60;99.90
39371;DHT22;25099;51.946;4.838;2022-11-23T02:55:33;7.70;99.90
39371;DHT22;25099;51.946;4.838;2022-11-23T02:57:59;7.70;99.90
39371;DHT22;25099;51.946;4.838;2022-11-23T03:00:24;7.70;99.90
39371;DHT22;25099;51.946;4.838;2022-11-23T03:02:50;7.70;99.90
39371;DHT22;25099;51.946;4.838;2022-11-23T03:05:15;7.70;99.90
39371;DHT22;25099;51.946;4.838;2022-11-23T03:07:41;7.70;99.90
39371;DHT22;25099;51.946;4.838;2022-11-23T03:10:07;7.80;99.90
39371;DHT22;25099;51.946;4.838;2022-11-23T03:12:33;7.90;99.90
39371;DHT22;25099;51.946;4.838;2022-11-23T03:14:58;7.80;99.90
39371;DHT22;25099;51.946;4.838;2022-11-23T03:17:24;7.80;99.90
39371;DHT22;25099;51.946;4.838;2022-11-23T03:19:50;7.80;99.90
39371;DHT22;25099;51.946;4.838;2022-11-23T03:22:16;7.80;99.90
39371;DHT22;25099;51.946;4.838;2022-11-23T03:24:41;7.80;99.90
39371;DHT22;25099;51.946;4.838;2022-11-23T03:27:07;7.80;99.90
39371;DHT22;25099;51.946;4.838;2022-11-23T03:29:33;7.80;99.90
39371;DHT22;25099;51.946;4.838;2022-11-23T03:32:01;7.70;99.90
39371;DHT22;25099;51.946;4.838;2022-11-23T03:34:27;7.70;99.90
39371;DHT22;25099;51.946;4.838;2022-11-23T03:36:52;7.60;99.90
39371;DHT22;25099;51.946;4.838;2022-11-23T03:39:18;7.60;99.90
39371;DHT22;25099;51.946;4.838;2022-11-23T03:41:43;7.50;99.90
39371;DHT22;25099;51.946;4.838;2022-11-23T03:44:09;7.50;99.90
39371;DHT22;25099;51.946;4.838;2022-11-23T03:46:35;7.50;99.90
39371;DHT22;25099;51.946;4.838;2022-11-23T03:49:00;7.60;99.90
39371;DHT22;25099;51.946;4.838;2022-11-23T03:51:26;7.70;99.90
39371;DHT22;25099;51.946;4.838;2022-11-23T03:53:51;7.70;99.90
39371;DHT22;25099;51.946;4.838;2022-11-23T03:56:17;7.80;99.90
39371;DHT22;25099;51.946;4.838;2022-11-23T03:58:42;7.90;99.90
39371;DHT22;25099;51.946;4.838;2022-11-23T04:01:08;7.90;99.90
39371;DHT22;25099;51.946;4.838;2022-11-23T04:03:33;8.00;99.90
39371;DHT22;25099;51.946;4.838;2022-11-23T04:05:59;8.00;99.90
39371;DHT22;25099;51.946;4.838;2022-11-23T04:08:25;8.10;99.90
39371;DHT22;25099;51.946;4.838;2022-11-23T04:10:51;8.20;99.90
39371;DHT22;25099;51.946;4.838;2022-11-23T04:13:16;8.10;99.90
39371;DHT22;25099;51.946;4.838;2022-11-23T04:15:42;8.20;99.90
39371;DHT22;25099;51.946;4.838;2022-11-23T04:18:07;8.20;99.90
39371;DHT22;25099;51.946;4.838;2022-11-23T04:20:33;8.20;99.90
39371;DHT22;25099;51.946;4.838;2022-11-23T04:22:58;8.30;99.90
39371;DHT22;25099;51.946;4.838;2022-11-23T04:25:24;8.20;99.90
39371;DHT22;25099;51.946;4.838;2022-11-23T04:27:49;8.30;99.90
39371;DHT22;25099;51.946;4.838;2022-11-23T04:30:15;8.30;99.90
39371;DHT22;25099;51.946;4.838;2022-11-23T04:32:43;8.30;99.90
39371;DHT22;25099;51.946;4.838;2022-11-23T04:35:10;8.30;99.90
39371;DHT22;25099;51.946;4.838;2022-11-23T04:37:35;8.30;99.90
39371;DHT22;25099;51.946;4.838;2022-11-23T04:40:01;8.30;99.90
39371;DHT22;25099;51.946;4.838;2022-11-23T04:42:26;8.30;99.90
39371;DHT22;25099;51.946;4.838;2022-11-23T04:44:52;8.30;99.90
39371;DHT22;25099;51.946;4.838;2022-11-23T04:47:18;8.20;99.90
39371;DHT22;25099;51.946;4.838;2022-11-23T04:49:43;8.30;99.90
39371;DHT22;25099;51.946;4.838;2022-11-23T04:52:09;8.20;99.90
39371;DHT22;25099;51.946;4.838;2022-11-23T04:54:34;8.30;99.90
39371;DHT22;25099;51.946;4.838;2022-11-23T04:57:00;8.30;99.90
39371;DHT22;25099;51.946;4.838;2022-11-23T04:59:25;8.30;99.90
39371;DHT22;25099;51.946;4.838;2022-11-23T05:01:51;8.40;99.90
39371;DHT22;25099;51.946;4.838;2022-11-23T05:04:18;8.40;99.90
39371;DHT22;25099;51.946;4.838;2022-11-23T05:06:44;8.40;99.90
39371;DHT22;25099;51.946;4.838;2022-11-23T05:09:09;8.40;99.90
39371;DHT22;25099;51.946;4.838;2022-11-23T05:11:35;8.40;99.90
39371;DHT22;25099;51.946;4.838;2022-11-23T05:14:00;8.30;99.90
39371;DHT22;25099;51.946;4.838;2022-11-23T05:16:26;8.30;99.90
39371;DHT22;25099;51.946;4.838;2022-11-23T05:18:51;8.40;99.90
39371;DHT22;25099;51.946;4.838;2022-11-23T05:21:17;8.30;99.90
39371;DHT22;25099;51.946;4.838;2022-11-23T05:23:42;8.40;99.90
39371;DHT22;25099;51.946;4.838;2022-11-23T05:26:08;8.40;99.90
39371;DHT22;25099;51.946;4.838;2022-11-23T05:28:34;8.40;99.90
39371;DHT22;25099;51.946;4.838;2022-11-23T05:30:59;8.40;99.90
39371;DHT22;25099;51.946;4.838;2022-11-23T05:33:25;8.50;99.90
39371;DHT22;25099;51.946;4.838;2022-11-23T05:35:50;8.40;99.90
39371;DHT22;25099;51.946;4.838;2022-11-23T05:38:22;8.40;99.90
39371;DHT22;25099;51.946;4.838;2022-11-23T05:40:47;8.30;99.90
39371;DHT22;25099;51.946;4.838;2022-11-23T05:43:13;8.30;99.90
39371;DHT22;25099;51.946;4.838;2022-11-23T05:45:40;8.20;99.90
39371;DHT22;25099;51.946;4.838;2022-11-23T05:48:05;8.30;99.90
39371;DHT22;25099;51.946;4.838;2022-11-23T05:50:31;8.30;99.90
39371;DHT22;25099;51.946;4.838;2022-11-23T05:52:58;8.30;99.90
39371;DHT22;25099;51.946;4.838;2022-11-23T05:55:24;8.20;99.90
39371;DHT22;25099;51.946;4.838;2022-11-23T05:57:50;8.20;99.90
39371;DHT22;25099;51.946;4.838;2022-11-23T06:00:16;8.10;99.90
39371;DHT22;25099;51.946;4.838;2022-11-23T06:02:41;8.10;99.90
39371;DHT22;25099;51.946;4.838;2022-11-23T06:05:08;8.10;99.90
39371;DHT22;25099;51.946;4.838;2022-11-23T06:07:33;8.10;99.90
39371;DHT22;25099;51.946;4.838;2022-11-23T06:09:59;8.10;99.90
39371;DHT22;25099;51.946;4.838;2022-11-23T06:12:26;8.10;99.90
39371;DHT22;25099;51.946;4.838;2022-11-23T06:14:52;8.00;99.90
39371;DHT22;25099;51.946;4.838;2022-11-23T06:17:17;8.00;99.90
39371;DHT22;25099;51.946;4.838;2022-11-23T06:19:43;8.00;99.90
39371;DHT22;25099;51.946;4.838;2022-11-23T06:22:09;7.90;99.90
39371;DHT22;25099;51.946;4.838;2022-11-23T06:24:34;7.80;99.90
39371;DHT22;25099;51.946;4.838;2022-11-23T06:27:00;7.70;99.90
39371;DHT22;25099;51.946;4.838;2022-11-23T06:29:25;7.70;99.90
39371;DHT22;25099;51.946;4.838;2022-11-23T06:31:51;7.50;99.90
39371;DHT22;25099;51.946;4.838;2022-11-23T06:34:16;7.40;99.90
39371;DHT22;25099;51.946;4.838;2022-11-23T06:36:42;7.40;99.90
39371;DHT22;25099;51.946;4.838;2022-11-23T06:39:08;7.30;99.90
39371;DHT22;25099;51.946;4.838;2022-11-23T06:41:34;7.20;99.90
39371;DHT22;25099;51.946;4.838;2022-11-23T06:43:59;7.30;99.90
39371;DHT22;25099;51.946;4.838;2022-11-23T06:46:25;7.20;99.90
39371;DHT22;25099;51.946;4.838;2022-11-23T06:48:51;7.10;99.90
39371;DHT22;25099;51.946;4.838;2022-11-23T06:51:16;7.10;99.90
39371;DHT22;25099;51.946;4.838;2022-11-23T06:53:42;7.00;99.90
39371;DHT22;25099;51.946;4.838;2022-11-23T06:56:08;6.90;99.90
39371;DHT22;25099;51.946;4.838;2022-11-23T06:58:34;6.90;99.90
39371;DHT22;25099;51.946;4.838;2022-11-23T07:01:01;6.80;99.90
39371;DHT22;25099;51.946;4.838;2022-11-23T07:03:28;6.80;99.90
39371;DHT22;25099;51.946;4.838;2022-11-23T07:05:53;6.80;99.90
39371;DHT22;25099;51.946;4.838;2022-11-23T07:08:19;6.80;99.90
39371;DHT22;25099;51.946;4.838;2022-11-23T07:10:44;6.70;99.90
39371;DHT22;25099;51.946;4.838;2022-11-23T07:13:10;6.70;99.90
39371;DHT22;25099;51.946;4.838;2022-11-23T07:15:37;6.70;99.90
39371;DHT22;25099;51.946;4.838;2022-11-23T07:18:03;6.70;99.90
39371;DHT22;25099;51.946;4.838;2022-11-23T07:20:29;6.80;99.90
39371;DHT22;25099;51.946;4.838;2022-11-23T07:23:03;6.80;99.90
39371;DHT22;25099;51.946;4.838;2022-11-23T07:25:30;6.90;99.90
39371;DHT22;25099;51.946;4.838;2022-11-23T07:27:57;7.00;99.90
39371;DHT22;25099;51.946;4.838;2022-11-23T07:30:24;7.10;99.90
39371;DHT22;25099;51.946;4.838;2022-11-23T07:32:51;7.10;99.90
39371;DHT22;25099;51.946;4.838;2022-11-23T07:35:18;7.20;99.90
39371;DHT22;25099;51.946;4.838;2022-11-23T07:37:44;7.30;99.90
39371;DHT22;25099;51.946;4.838;2022-11-23T07:40:10;7.50;99.90
39371;DHT22;25099;51.946;4.838;2022-11-23T07:42:36;7.50;99.90
39371;DHT22;25099;51.946;4.838;2022-11-23T07:45:03;7.60;99.90
39371;DHT22;25099;51.946;4.838;2022-11-23T07:47:29;7.60;99.90
39371;DHT22;25099;51.946;4.838;2022-11-23T07:49:54;7.70;99.90
39371;DHT22;25099;51.946;4.838;2022-11-23T07:52:23;7.80;99.90
39371;DHT22;25099;51.946;4.838;2022-11-23T07:54:48;7.80;99.90
39371;DHT22;25099;51.946;4.838;2022-11-23T07:57:14;7.80;99.90
39371;DHT22;25099;51.946;4.838;2022-11-23T07:59:39;7.80;99.90
39371;DHT22;25099;51.946;4.838;2022-11-23T08:02:05;7.90;99.90
39371;DHT22;25099;51.946;4.838;2022-11-23T08:04:31;8.00;99.90
39371;DHT22;25099;51.946;4.838;2022-11-23T08:06:56;8.00;99.90
39371;DHT22;25099;51.946;4.838;2022-11-23T08:09:22;8.00;99.90
39371;DHT22;25099;51.946;4.838;2022-11-23T08:11:48;8.10;99.90
39371;DHT22;25099;51.946;4.838;2022-11-23T08:14:13;8.10;99.90
39371;DHT22;25099;51.946;4.838;2022-11-23T08:16:41;8.20;99.90
39371;DHT22;25099;51.946;4.838;2022-11-23T08:19:07;8.20;99.90
39371;DHT22;25099;51.946;4.838;2022-11-23T08:21:32;8.20;99.90
39371;DHT22;25099;51.946;4.838;2022-11-23T08:23:58;8.30;99.90
39371;DHT22;25099;51.946;4.838;2022-11-23T08:26:23;8.30;99.90
39371;DHT22;25099;51.946;4.838;2022-11-23T08:28:49;8.40;99.90
39371;DHT22;25099;51.946;4.838;2022-11-23T08:31:14;8.40;99.90
39371;DHT22;25099;51.946;4.838;2022-11-23T08:33:40;8.50;99.90
39371;DHT22;25099;51.946;4.838;2022-11-23T08:36:07;8.50;99.90
39371;DHT22;25099;51.946;4.838;2022-11-23T08:38:33;8.50;99.90
39371;DHT22;25099;51.946;4.838;2022-11-23T08:41:00;8.50;99.90
39371;DHT22;25099;51.946;4.838;2022-11-23T08:43:29;8.60;99.90
39371;DHT22;25099;51.946;4.838;2022-11-23T08:45:59;8.70;99.90
39371;DHT22;25099;51.946;4.838;2022-11-23T08:48:28;8.80;99.90
39371;DHT22;25099;51.946;4.838;2022-11-23T08:50:53;8.80;99.90
39371;DHT22;25099;51.946;4.838;2022-11-23T08:53:19;8.40;99.90
39371;DHT22;25099;51.946;4.838;2022-11-23T08:55:45;9.40;99.90
39371;DHT22;25099;51.946;4.838;2022-11-23T08:58:10;8.80;99.90
39371;DHT22;25099;51.946;4.838;2022-11-23T09:00:36;8.80;99.90
39371;DHT22;25099;51.946;4.838;2022-11-23T09:03:03;8.70;99.90
39371;DHT22;25099;51.946;4.838;2022-11-23T09:05:29;8.70;99.90
39371;DHT22;25099;51.946;4.838;2022-11-23T09:07:58;8.70;99.90
39371;DHT22;25099;51.946;4.838;2022-11-23T09:10:24;8.70;99.90
39371;DHT22;25099;51.946;4.838;2022-11-23T09:12:50;8.60;99.90
39371;DHT22;25099;51.946;4.838;2022-11-23T09:15:16;8.70;99.90
39371;DHT22;25099;51.946;4.838;2022-11-23T09:17:42;8.60;99.90
39371;DHT22;25099;51.946;4.838;2022-11-23T09:20:08;8.60;99.90
39371;DHT22;25099;51.946;4.838;2022-11-23T09:22:34;8.50;99.90
39371;DHT22;25099;51.946;4.838;2022-11-23T09:25:00;8.50;99.90
39371;DHT22;25099;51.946;4.838;2022-11-23T09:27:25;8.50;99.90
39371;DHT22;25099;51.946;4.838;2022-11-23T09:29:51;8.50;99.90
39371;DHT22;25099;51.946;4.838;2022-11-23T09:32:17;8.50;99.90
39371;DHT22;25099;51.946;4.838;2022-11-23T09:34:42;8.50;99.90
39371;DHT22;25099;51.946;4.838;2022-11-23T09:37:10;8.50;99.90
39371;DHT22;25099;51.946;4.838;2022-11-23T09:39:35;8.50;99.90
39371;DHT22;25099;51.946;4.838;2022-11-23T09:42:13;8.50;99.90
39371;DHT22;25099;51.946;4.838;2022-11-23T09:47:48;8.50;99.90
39371;DHT22;25099;51.946;4.838;2022-11-23T09:50:49;8.50;99.90
39371;DHT22;25099;51.946;4.838;2022-11-23T09:53:23;9.10;99.90
39371;DHT22;25099;51.946;4.838;2022-11-23T09:55:55;8.60;99.90
39371;DHT22;25099;51.946;4.838;2022-11-23T09:58:23;8.60;99.90
39371;DHT22;25099;51.946;4.838;2022-11-23T10:00:59;8.70;99.90
39371;DHT22;25099;51.946;4.838;2022-11-23T10:03:32;8.60;99.90
39371;DHT22;25099;51.946;4.838;2022-11-23T10:08:43;8.80;99.90
39371;DHT22;25099;51.946;4.838;2022-11-23T10:11:34;8.80;99.90
39371;DHT22;25099;51.946;4.838;2022-11-23T10:14:25;8.90;99.90
39371;DHT22;25099;51.946;4.838;2022-11-23T10:19:49;9.10;99.90
39371;DHT22;25099;51.946;4.838;2022-11-23T10:22:34;9.10;99.90
39371;DHT22;25099;51.946;4.838;2022-11-23T10:25:13;9.00;99.90
39371;DHT22;25099;51.946;4.838;2022-11-23T10:27:40;9.00;99.90
39371;DHT22;25099;51.946;4.838;2022-11-23T10:30:11;9.10;99.90
39371;DHT22;25099;51.946;4.838;2022-11-23T10:32:40;9.10;99.90
39371;DHT22;25099;51.946;4.838;2022-11-23T10:37:41;9.20;99.90
39371;DHT22;25099;51.946;4.838;2022-11-23T10:40:19;9.30;99.90
39371;DHT22;25099;51.946;4.838;2022-11-23T10:43:05;9.30;99.90
39371;DHT22;25099;51.946;4.838;2022-11-23T10:45:34;9.30;99.90
39371;DHT22;25099;51.946;4.838;2022-11-23T10:47:59;9.30;99.90
39371;DHT22;25099;51.946;4.838;2022-11-23T10:50:31;9.30;99.90
39371;DHT22;25099;51.946;4.838;2022-11-23T10:55:44;8.40;99.90
39371;DHT22;25099;51.946;4.838;2022-11-23T11:01:01;9.40;99.90
39371;DHT22;25099;51.946;4.838;2022-11-23T11:03:30;9.30;99.90
39371;DHT22;25099;51.946;4.838;2022-11-23T11:05:57;9.30;99.90
39371;DHT22;25099;51.946;4.838;2022-11-23T11:08:28;9.30;99.90
39371;DHT22;25099;51.946;4.838;2022-11-23T11:11:06;9.30;99.90
39371;DHT22;25099;51.946;4.838;2022-11-23T11:13:46;9.30;99.90
39371;DHT22;25099;51.946;4.838;2022-11-23T11:16:25;9.30;99.90
39371;DHT22;25099;51.946;4.838;2022-11-23T11:18:52;9.30;99.90
39371;DHT22;25099;51.946;4.838;2022-11-23T11:21:23;9.30;99.90
39371;DHT22;25099;51.946;4.838;2022-11-23T11:23:52;9.20;99.90
39371;DHT22;25099;51.946;4.838;2022-11-23T11:28:56;9.30;99.90
39371;DHT22;25099;51.946;4.838;2022-11-23T11:34:13;10.30;99.90
39371;DHT22;25099;51.946;4.838;2022-11-23T11:37:07;9.50;99.90
39371;DHT22;25099;51.946;4.838;2022-11-23T11:39:40;9.50;99.90
39371;DHT22;25099;51.946;4.838;2022-11-23T11:42:15;9.50;99.90
39371;DHT22;25099;51.946;4.838;2022-11-23T11:44:42;9.60;99.90
39371;DHT22;25099;51.946;4.838;2022-11-23T11:47:24;9.70;99.90
39371;DHT22;25099;51.946;4.838;2022-11-23T11:49:55;9.80;99.90
39371;DHT22;25099;51.946;4.838;2022-11-23T11:52:26;9.80;99.90
39371;DHT22;25099;51.946;4.838;2022-11-23T11:55:14;9.70;99.90
39371;DHT22;25099;51.946;4.838;2022-11-23T11:57:51;9.80;99.90
39371;DHT22;25099;51.946;4.838;2022-11-23T12:00:19;10.20;99.90
39371;DHT22;25099;51.946;4.838;2022-11-23T12:06:03;9.90;99.90
39371;DHT22;25099;51.946;4.838;2022-11-23T12:08:58;10.00;99.90
39371;DHT22;25099;51.946;4.838;2022-11-23T12:11:20;10.00;99.90
39371;DHT22;25099;51.946;4.838;2022-11-23T12:13:47;10.10;99.90
39371;DHT22;25099;51.946;4.838;2022-11-23T12:21:54;11.00;99.90
39371;DHT22;25099;51.946;4.838;2022-11-23T12:27:19;10.10;99.90
39371;DHT22;25099;51.946;4.838;2022-11-23T12:35:45;10.00;99.90
39371;DHT22;25099;51.946;4.838;2022-11-23T12:38:28;9.90;99.90
39371;DHT22;25099;51.946;4.838;2022-11-23T12:40:57;10.00;99.90
39371;DHT22;25099;51.946;4.838;2022-11-23T12:44:13;10.00;99.90
39371;DHT22;25099;51.946;4.838;2022-11-23T12:47:21;10.10;99.90
39371;DHT22;25099;51.946;4.838;2022-11-23T12:49:49;10.10;99.90
39371;DHT22;25099;51.946;4.838;2022-11-23T12:57:41;10.20;99.90
39371;DHT22;25099;51.946;4.838;2022-11-23T13:00:20;10.10;99.90
39371;DHT22;25099;51.946;4.838;2022-11-23T13:08:53;10.00;99.90
39371;DHT22;25099;51.946;4.838;2022-11-23T13:14:15;10.00;99.90
39371;DHT22;25099;51.946;4.838;2022-11-23T13:22:15;10.00;99.90
39371;DHT22;25099;51.946;4.838;2022-11-23T13:25:13;10.00;99.90
39371;DHT22;25099;51.946;4.838;2022-11-23T13:30:41;9.70;99.90
39371;DHT22;25099;51.946;4.838;2022-11-23T13:40:39;9.50;99.90
39371;DHT22;25099;51.946;4.838;2022-11-23T13:43:28;9.50;99.90
39371;DHT22;25099;51.946;4.838;2022-11-23T13:46:24;9.50;99.90
39371;DHT22;25099;51.946;4.838;2022-11-23T13:48:57;9.40;99.90
39371;DHT22;25099;51.946;4.838;2022-11-23T13:51:30;9.40;99.90
39371;DHT22;25099;51.946;4.838;2022-11-23T13:54:05;9.20;99.90
39371;DHT22;25099;51.946;4.838;2022-11-23T13:56:43;9.30;99.90
39371;DHT22;25099;51.946;4.838;2022-11-23T13:59:41;9.20;99.90
39371;DHT22;25099;51.946;4.838;2022-11-23T14:10:13;9.10;99.90
39371;DHT22;25099;51.946;4.838;2022-11-23T14:13:11;9.10;99.90
39371;DHT22;25099;51.946;4.838;2022-11-23T14:15:40;9.10;99.90
39371;DHT22;25099;51.946;4.838;2022-11-23T14:20:57;9.10;99.90
39371;DHT22;25099;51.946;4.838;2022-11-23T14:32:07;9.00;99.90
39371;DHT22;25099;51.946;4.838;2022-11-23T14:37:50;8.90;99.90
39371;DHT22;25099;51.946;4.838;2022-11-23T14:40:34;8.90;99.90
39371;DHT22;25099;51.946;4.838;2022-11-23T14:43:11;8.90;99.90
39371;DHT22;25099;51.946;4.838;2022-11-23T14:45:38;8.90;99.90
39371;DHT22;25099;51.946;4.838;2022-11-23T14:48:26;8.90;99.90
39371;DHT22;25099;51.946;4.838;2022-11-23T14:50:59;8.90;99.90
39371;DHT22;25099;51.946;4.838;2022-11-23T14:53:33;8.80;99.90
39371;DHT22;25099;51.946;4.838;2022-11-23T14:55:59;8.80;99.90
39371;DHT22;25099;51.946;4.838;2022-11-23T14:58:27;8.80;99.90
39371;DHT22;25099;51.946;4.838;2022-11-23T15:01:03;8.80;99.90
39371;DHT22;25099;51.946;4.838;2022-11-23T15:03:30;8.90;99.90
39371;DHT22;25099;51.946;4.838;2022-11-23T15:06:17;8.90;99.90
39371;DHT22;25099;51.946;4.838;2022-11-23T15:08:52;8.90;99.90
39371;DHT22;25099;51.946;4.838;2022-11-23T15:11:25;8.90;99.90
39371;DHT22;25099;51.946;4.838;2022-11-23T15:13:53;8.80;99.90
39371;DHT22;25099;51.946;4.838;2022-11-23T15:16:20;8.80;99.90
39371;DHT22;25099;51.946;4.838;2022-11-23T15:18:47;8.80;99.90
39371;DHT22;25099;51.946;4.838;2022-11-23T15:21:24;8.90;99.90
39371;DHT22;25099;51.946;4.838;2022-11-23T15:23:51;8.90;99.90
39371;DHT22;25099;51.946;4.838;2022-11-23T15:26:26;8.90;99.90
39371;DHT22;25099;51.946;4.838;2022-11-23T15:28:53;8.80;99.90
39371;DHT22;25099;51.946;4.838;2022-11-23T15:31:33;8.90;99.90
39371;DHT22;25099;51.946;4.838;2022-11-23T15:34:16;8.90;99.90
39371;DHT22;25099;51.946;4.838;2022-11-23T15:36:42;8.80;99.90
39371;DHT22;25099;51.946;4.838;2022-11-23T15:39:21;8.90;99.90
39371;DHT22;25099;51.946;4.838;2022-11-23T15:41:50;8.90;99.90
39371;DHT22;25099;51.946;4.838;2022-11-23T15:44:23;8.90;99.90
39371;DHT22;25099;51.946;4.838;2022-11-23T15:46:56;8.90;99.90
39371;DHT22;25099;51.946;4.838;2022-11-23T15:49:23;9.00;99.90
39371;DHT22;25099;51.946;4.838;2022-11-23T15:51:49;8.90;99.90
39371;DHT22;25099;51.946;4.838;2022-11-23T15:54:20;9.00;99.90
39371;DHT22;25099;51.946;4.838;2022-11-23T15:56:48;8.90;99.90
39371;DHT22;25099;51.946;4.838;2022-11-23T16:01:56;9.00;99.90
39371;DHT22;25099;51.946;4.838;2022-11-23T16:04:37;9.00;99.90
39371;DHT22;25099;51.946;4.838;2022-11-23T16:07:24;8.90;99.90
39371;DHT22;25099;51.946;4.838;2022-11-23T16:09:50;9.00;99.90
39371;DHT22;25099;51.946;4.838;2022-11-23T16:12:30;8.90;99.90
39371;DHT22;25099;51.946;4.838;2022-11-23T16:14:57;9.00;99.90
39371;DHT22;25099;51.946;4.838;2022-11-23T16:17:24;8.90;99.90
39371;DHT22;25099;51.946;4.838;2022-11-23T16:19:58;8.90;99.90
39371;DHT22;25099;51.946;4.838;2022-11-23T16:22:34;9.00;99.90
39371;DHT22;25099;51.946;4.838;2022-11-23T16:25:07;9.00;99.90
39371;DHT22;25099;51.946;4.838;2022-11-23T16:27:40;9.00;99.90
39371;DHT22;25099;51.946;4.838;2022-11-23T16:30:20;9.00;99.90
39371;DHT22;25099;51.946;4.838;2022-11-23T16:32:46;9.00;99.90
39371;DHT22;25099;51.946;4.838;2022-11-23T16:35:15;9.00;99.90
39371;DHT22;25099;51.946;4.838;2022-11-23T16:37:41;9.00;99.90
39371;DHT22;25099;51.946;4.838;2022-11-23T16:40:08;9.00;99.90
39371;DHT22;25099;51.946;4.838;2022-11-23T16:42:35;9.00;99.90
39371;DHT22;25099;51.946;4.838;2022-11-23T16:45:00;9.00;99.90
39371;DHT22;25099;51.946;4.838;2022-11-23T16:47:27;8.90;99.90
39371;DHT22;25099;51.946;4.838;2022-11-23T16:49:54;8.90;99.90
39371;DHT22;25099;51.946;4.838;2022-11-23T16:52:20;8.80;99.90
39371;DHT22;25099;51.946;4.838;2022-11-23T16:54:47;8.80;99.90
39371;DHT22;25099;51.946;4.838;2022-11-23T16:59:52;8.70;99.90
39371;DHT22;25099;51.946;4.838;2022-11-23T17:02:21;8.60;99.90
39371;DHT22;25099;51.946;4.838;2022-11-23T17:04:46;8.60;99.90
39371;DHT22;25099;51.946;4.838;2022-11-23T17:07:12;8.50;99.90
39371;DHT22;25099;51.946;4.838;2022-11-23T17:09:38;8.50;99.90
39371;DHT22;25099;51.946;4.838;2022-11-23T17:12:05;9.50;99.90
39371;DHT22;25099;51.946;4.838;2022-11-23T17:14:35;8.50;99.90
39371;DHT22;25099;51.946;4.838;2022-11-23T17:17:02;8.40;99.90
39371;DHT22;25099;51.946;4.838;2022-11-23T17:19:28;8.40;99.90
39371;DHT22;25099;51.946;4.838;2022-11-23T17:21:54;8.40;99.90
39371;DHT22;25099;51.946;4.838;2022-11-23T17:24:19;8.50;99.90
39371;DHT22;25099;51.946;4.838;2022-11-23T17:26:47;8.40;99.90
39371;DHT22;25099;51.946;4.838;2022-11-23T17:29:18;8.40;99.90
39371;DHT22;25099;51.946;4.838;2022-11-23T17:31:48;8.40;99.90
39371;DHT22;25099;51.946;4.838;2022-11-23T17:34:14;8.40;99.90
39371;DHT22;25099;51.946;4.838;2022-11-23T17:36:44;8.40;99.90
39371;DHT22;25099;51.946;4.838;2022-11-23T17:39:21;8.30;99.90
39371;DHT22;25099;51.946;4.838;2022-11-23T17:41:47;8.20;99.90